Time;durP1;ratioP1;P1;durP2;ratioP2;P2;SDS_P1;SDS_P2;PMS_P1;PMS_P2;Temp;Humidity;BMP_temperature;BMP_pressure;BME280_temperature;BME280_humidity;BME280_pressure;Samples;Min_cycle;Max_cycle;Signal;HPM_P1;HPM_P2
2023/02/05 00:01:05;;;;;;;;;;;;;;;;;;5094803;28;19915;-63
2023/02/05 00:03:31;;;;;;;;;;;;;;;;;;5094672;28;19915;-63
2023/02/05 00:05:57;;;;;;;;;;;;;;;;;;5094534;28;19912;-64
2023/02/05 00:08:24;;;;;;;;;;;;;;;;;;5094642;28;20280;-63
2023/02/05 00:10:49;;;;;;;;;;;;;;;;;;5094570;28;19912;-64
2023/02/05 00:13:15;;;;;;;;;;;;;;;;;;5094429;28;20006;-64
2023/02/05 00:15:41;;;;;;;;;;;;;;;;;;5099085;28;20022;-64
2023/02/05 00:18:07;;;;;;;;;;;;;;;;;;5113119;28;20026;-64
2023/02/05 00:20:35;;;;;;;;;;;;;;;;;;5106178;28;20436;-64
2023/02/05 00:23:01;;;;;;;;;;;;;;;;;;5096473;28;20331;-63
2023/02/05 00:25:26;;;;;;;;;;;;;;;;;;5110217;28;19912;-63
2023/02/05 00:27:52;;;;;;;;;;;;;;;;;;5112627;28;19931;-63
2023/02/05 00:30:18;;;;;;;;;;;;;;;;;;5095262;28;19908;-64
2023/02/05 00:32:44;;;;;;;;;;;;;;;;;;5094187;28;19915;-64
2023/02/05 00:35:10;;;;;;;;;;;;;;;;;;5097806;28;19919;-63
2023/02/05 00:37:36;;;;;;;;;;;;;;;;;;5093809;28;19915;-64
2023/02/05 00:40:02;;;;;;;;;;;;;;;;;;5094153;28;20351;-63
2023/02/05 00:42:28;;;;;;;;;;;;;;;;;;5087516;28;19912;-63
2023/02/05 00:44:54;;;;;;;;;;;;;;;;;;5114214;28;19908;-64
2023/02/05 00:47:20;;;;;;;;;;;;;;;;;;5095010;28;19913;-63
2023/02/05 00:49:46;;;;;;;;;;;;;;;;;;5076957;28;19918;-63
2023/02/05 00:52:11;;;;;;;;;;;;;;;;;;5112113;28;19922;-63
2023/02/05 00:54:37;;;;;;;;;;;;;;;;;;5112232;28;19936;-64
2023/02/05 00:57:03;;;;;;;;;;;;;;;;;;5096187;28;20300;-64
2023/02/05 00:59:29;;;;;;;;;;;;;;;;;;5093708;28;19908;-64
2023/02/05 01:01:55;;;;;;;;;;;;;;;;;;5093541;28;19930;-63
2023/02/05 01:04:21;;;;;;;;;;;;;;;;;;5093342;28;20486;-63
2023/02/05 01:06:47;;;;;;;;;;;;;;;;;;5093640;28;19919;-64
2023/02/05 01:09:13;;;;;;;;;;;;;;;;;;5093440;28;19912;-64
2023/02/05 01:11:39;;;;;;;;;;;;;;;;;;5093428;28;19927;-64
2023/02/05 01:14:05;;;;;;;;;;;;;;;;;;5094435;28;19912;-64
2023/02/05 01:16:31;;;;;;;;;;;;;;;;;;5104665;28;19916;-64
2023/02/05 01:18:57;;;;;;;;;;;;;;;;;;5111793;28;20383;-64
2023/02/05 01:21:23;;;;;;;;;;;;;;;;;;5111325;28;20436;-64
2023/02/05 01:23:49;;;;;;;;;;;;;;;;;;5112898;28;20288;-64
2023/02/05 01:26:15;;;;;;;;;;;;;;;;;;5112716;28;19912;-64
2023/02/05 01:28:41;;;;;;;;;;;;;;;;;;5113502;28;19908;-64
2023/02/05 01:31:07;;;;;;;;;;;;;;;;;;5102924;28;20440;-63
2023/02/05 01:33:33;;;;;;;;;;;;;;;;;;5092517;28;20372;-64
2023/02/05 01:35:59;;;;;;;;;;;;;;;;;;5092789;28;19923;-64
2023/02/05 01:38:25;;;;;;;;;;;;;;;;;;5093873;28;19920;-63
2023/02/05 01:40:51;;;;;;;;;;;;;;;;;;5092905;28;19912;-64
2023/02/05 01:43:16;;;;;;;;;;;;;;;;;;5092888;28;19912;-64
2023/02/05 01:45:42;;;;;;;;;;;;;;;;;;5097958;28;19915;-64
2023/02/05 01:48:08;;;;;;;;;;;;;;;;;;5113015;28;20349;-64
2023/02/05 01:50:34;;;;;;;;;;;;;;;;;;5112573;28;19916;-63
2023/02/05 01:53:00;;;;;;;;;;;;;;;;;;5111136;28;19970;-63
2023/02/05 01:55:26;;;;;;;;;;;;;;;;;;5112143;28;19961;-64
2023/02/05 01:57:52;;;;;;;;;;;;;;;;;;5112761;28;19958;-64
2023/02/05 02:00:18;;;;;;;;;;;;;;;;;;5107570;28;19916;-64
2023/02/05 02:02:44;;;;;;;;;;;;;;;;;;5102436;28;20360;-64
2023/02/05 02:05:10;;;;;;;;;;;;;;;;;;5112401;28;19912;-64
2023/02/05 02:07:36;;;;;;;;;;;;;;;;;;5110817;28;19965;-64
2023/02/05 02:10:01;;;;;;;;;;;;;;;;;;5112436;28;19953;-64
2023/02/05 02:12:27;;;;;;;;;;;;;;;;;;5112107;28;19954;-63
2023/02/05 02:14:53;;;;;;;;;;;;;;;;;;5092614;28;19955;-63
2023/02/05 02:17:19;;;;;;;;;;;;;;;;;;5110067;28;20483;-64
2023/02/05 02:19:45;;;;;;;;;;;;;;;;;;5112704;28;19907;-64
2023/02/05 02:22:11;;;;;;;;;;;;;;;;;;5097740;28;19912;-64
2023/02/05 02:24:37;;;;;;;;;;;;;;;;;;5093302;28;19998;-63
2023/02/05 02:27:03;;;;;;;;;;;;;;;;;;5093344;28;20066;-63
2023/02/05 02:29:29;;;;;;;;;;;;;;;;;;5092123;28;20395;-63
2023/02/05 02:31:55;;;;;;;;;;;;;;;;;;5105332;28;19951;-64
2023/02/05 02:34:21;;;;;;;;;;;;;;;;;;5112328;28;20252;-64
2023/02/05 02:36:47;;;;;;;;;;;;;;;;;;5112213;28;19923;-64
2023/02/05 02:39:13;;;;;;;;;;;;;;;;;;5110758;28;20371;-64
2023/02/05 02:41:39;;;;;;;;;;;;;;;;;;5111936;28;19911;-63
2023/02/05 02:44:05;;;;;;;;;;;;;;;;;;5094844;28;20315;-64
2023/02/05 02:46:31;;;;;;;;;;;;;;;;;;5104101;28;20014;-64
2023/02/05 02:48:57;;;;;;;;;;;;;;;;;;5096144;28;20497;-63
2023/02/05 02:51:23;;;;;;;;;;;;;;;;;;5096051;28;19959;-64
2023/02/05 02:53:49;;;;;;;;;;;;;;;;;;5129170;22;19924;-59
2023/02/05 02:56:15;;;;;;;;;;;;;;;;;;5097633;28;19959;-60
2023/02/05 02:58:41;;;;;;;;;;;;;;;;;;5116132;28;19912;-59
2023/02/05 03:01:07;;;;;;;;;;;;;;;;;;5115933;28;20287;-59
2023/02/05 03:03:33;;;;;;;;;;;;;;;;;;5108548;28;19912;-57
2023/02/05 03:05:59;;;;;;;;;;;;;;;;;;5095743;28;19958;-58
2023/02/05 03:08:24;;;;;;;;;;;;;;;;;;5095766;28;19912;-59
2023/02/05 03:10:50;;;;;;;;;;;;;;;;;;5096962;28;19908;-59
2023/02/05 03:13:18;;;;;;;;;;;;;;;;;;5095521;28;19938;-59
2023/02/05 03:15:44;;;;;;;;;;;;;;;;;;5100664;28;19908;-59
2023/02/05 03:18:10;;;;;;;;;;;;;;;;;;5114359;28;19934;-58
2023/02/05 03:20:36;;;;;;;;;;;;;;;;;;5114564;28;20380;-59
2023/02/05 03:23:02;;;;;;;;;;;;;;;;;;5095438;28;20376;-59
2023/02/05 03:25:29;;;;;;;;;;;;;;;;;;5096470;28;19961;-60
2023/02/05 03:27:54;;;;;;;;;;;;;;;;;;5099569;28;19912;-58
2023/02/05 03:30:20;;;;;;;;;;;;;;;;;;5103559;28;19919;-59
2023/02/05 03:32:46;;;;;;;;;;;;;;;;;;5095262;28;19911;-59
2023/02/05 03:35:12;;;;;;;;;;;;;;;;;;5095020;28;20318;-59
2023/02/05 03:37:38;;;;;;;;;;;;;;;;;;5095135;28;19919;-58
2023/02/05 03:40:04;;;;;;;;;;;;;;;;;;5095297;28;19915;-59
2023/02/05 03:42:30;;;;;;;;;;;;;;;;;;5095171;28;19908;-58
2023/02/05 03:44:56;;;;;;;;;;;;;;;;;;5094936;28;19912;-58
2023/02/05 03:47:22;;;;;;;;;;;;;;;;;;5094626;28;20001;-58
2023/02/05 03:49:51;;;;;;;;;;;;;;;;;;5093795;28;19912;-60
2023/02/05 03:52:17;;;;;;;;;;;;;;;;;;5106502;28;19908;-60
2023/02/05 03:54:43;;;;;;;;;;;;;;;;;;5102571;28;19916;-60
2023/02/05 03:57:11;;;;;;;;;;;;;;;;;;5094638;28;20021;-57
2023/02/05 03:59:37;;;;;;;;;;;;;;;;;;5094761;28;19933;-57
2023/02/05 04:02:03;;;;;;;;;;;;;;;;;;5109940;28;20018;-58
2023/02/05 04:04:29;;;;;;;;;;;;;;;;;;5114242;28;19911;-58
2023/02/05 04:06:55;;;;;;;;;;;;;;;;;;5114810;28;19919;-58
2023/02/05 04:09:21;;;;;;;;;;;;;;;;;;5115086;28;19908;-58
2023/02/05 04:11:47;;;;;;;;;;;;;;;;;;5112845;28;20291;-57
2023/02/05 04:14:13;;;;;;;;;;;;;;;;;;5112883;28;19916;-58
2023/02/05 04:16:39;;;;;;;;;;;;;;;;;;5112968;28;19923;-59
2023/02/05 04:19:05;;;;;;;;;;;;;;;;;;5105754;28;20338;-59
2023/02/05 04:21:31;;;;;;;;;;;;;;;;;;5094735;28;19912;-59
2023/02/05 04:23:57;;;;;;;;;;;;;;;;;;5094094;28;20288;-58
2023/02/05 04:26:23;;;;;;;;;;;;;;;;;;5094054;28;20462;-59
2023/02/05 04:28:49;;;;;;;;;;;;;;;;;;5104331;28;20372;-59
2023/02/05 04:31:14;;;;;;;;;;;;;;;;;;5105759;28;19912;-59
2023/02/05 04:33:40;;;;;;;;;;;;;;;;;;5103097;28;20390;-59
2023/02/05 04:36:06;;;;;;;;;;;;;;;;;;5097882;28;19916;-59
2023/02/05 04:38:32;;;;;;;;;;;;;;;;;;5095652;28;19918;-57
2023/02/05 04:40:58;;;;;;;;;;;;;;;;;;5092382;28;20002;-59
2023/02/05 04:43:24;;;;;;;;;;;;;;;;;;5093873;28;19939;-59
2023/02/05 04:45:50;;;;;;;;;;;;;;;;;;5106806;28;19916;-57
2023/02/05 04:48:16;;;;;;;;;;;;;;;;;;5093796;28;19963;-58
2023/02/05 04:50:42;;;;;;;;;;;;;;;;;;5100058;28;19912;-58
2023/02/05 04:53:08;;;;;;;;;;;;;;;;;;5113715;28;19919;-58
2023/02/05 04:55:34;;;;;;;;;;;;;;;;;;5113625;28;19922;-57
2023/02/05 04:58:00;;;;;;;;;;;;;;;;;;5109850;28;20318;-58
2023/02/05 05:00:26;;;;;;;;;;;;;;;;;;5096325;28;19916;-58
2023/02/05 05:02:51;;;;;;;;;;;;;;;;;;5095250;28;19955;-58
2023/02/05 05:05:17;;;;;;;;;;;;;;;;;;5113139;28;19918;-57
2023/02/05 05:07:43;;;;;;;;;;;;;;;;;;5112687;28;19916;-58
2023/02/05 05:10:09;;;;;;;;;;;;;;;;;;5112026;28;19994;-58
2023/02/05 05:12:35;;;;;;;;;;;;;;;;;;5080545;28;20342;-58
2023/02/05 05:15:01;;;;;;;;;;;;;;;;;;5091864;28;19965;-57
2023/02/05 05:17:27;;;;;;;;;;;;;;;;;;5093236;28;19966;-58
2023/02/05 05:19:53;;;;;;;;;;;;;;;;;;5093191;28;19909;-58
2023/02/05 05:22:19;;;;;;;;;;;;;;;;;;5093281;28;19908;-59
2023/02/05 05:24:45;;;;;;;;;;;;;;;;;;5092822;28;19908;-58
2023/02/05 05:27:11;;;;;;;;;;;;;;;;;;5093246;28;20387;-59
2023/02/05 05:29:37;;;;;;;;;;;;;;;;;;5093311;28;19915;-59
2023/02/05 05:32:02;;;;;;;;;;;;;;;;;;5093226;28;19908;-59
2023/02/05 05:34:28;;;;;;;;;;;;;;;;;;5092872;28;20064;-59
2023/02/05 05:36:54;;;;;;;;;;;;;;;;;;5092871;28;20017;-59
2023/02/05 05:44:51;;;;;;;;;;;;;;;;;;5088757;28;19941;-59
2023/02/05 05:47:17;;;;;;;;;;;;;;;;;;5110787;28;20002;-59
2023/02/05 05:49:43;;;;;;;;;;;;;;;;;;5107386;28;20384;-59
2023/02/05 05:52:09;;;;;;;;;;;;;;;;;;5092608;28;20020;-57
2023/02/05 05:54:35;;;;;;;;;;;;;;;;;;5092355;28;19922;-58
2023/02/05 05:57:01;;;;;;;;;;;;;;;;;;5092434;28;19920;-59
2023/02/05 05:59:27;;;;;;;;;;;;;;;;;;5093349;28;19918;-59
2023/02/05 06:01:53;;;;;;;;;;;;;;;;;;5092705;28;20296;-59
2023/02/05 06:04:19;;;;;;;;;;;;;;;;;;5104643;28;19911;-58
2023/02/05 06:06:45;;;;;;;;;;;;;;;;;;5094864;28;20324;-59
2023/02/05 06:09:11;;;;;;;;;;;;;;;;;;5081998;28;19918;-59
2023/02/05 06:11:36;;;;;;;;;;;;;;;;;;5112357;28;19924;-59
2023/02/05 06:14:02;;;;;;;;;;;;;;;;;;5112560;28;19908;-59
2023/02/05 06:16:28;;;;;;;;;;;;;;;;;;5099222;28;19969;-59
2023/02/05 06:18:54;;;;;;;;;;;;;;;;;;5095842;28;19912;-59
2023/02/05 06:21:20;;;;;;;;;;;;;;;;;;5110700;28;19919;-59
2023/02/05 06:23:46;;;;;;;;;;;;;;;;;;5092891;28;19908;-59
2023/02/05 06:26:12;;;;;;;;;;;;;;;;;;5091753;28;19913;-58
2023/02/05 06:28:38;;;;;;;;;;;;;;;;;;5074298;28;19953;-60
2023/02/05 06:31:04;;;;;;;;;;;;;;;;;;5092216;28;20053;-59
2023/02/05 06:33:30;;;;;;;;;;;;;;;;;;5098932;28;19935;-60
2023/02/05 06:35:56;;;;;;;;;;;;;;;;;;5112031;28;19937;-60
2023/02/05 06:38:21;;;;;;;;;;;;;;;;;;5103205;28;19957;-57
2023/02/05 06:40:47;;;;;;;;;;;;;;;;;;5103609;28;19925;-59
2023/02/05 06:43:13;;;;;;;;;;;;;;;;;;5094225;28;19912;-60
2023/02/05 06:45:39;;;;;;;;;;;;;;;;;;5094033;28;20365;-59
2023/02/05 06:48:05;;;;;;;;;;;;;;;;;;5106498;28;19912;-58
2023/02/05 06:50:31;;;;;;;;;;;;;;;;;;5107639;28;19912;-59
2023/02/05 06:52:57;;;;;;;;;;;;;;;;;;5102851;28;19935;-61
2023/02/05 06:55:23;;;;;;;;;;;;;;;;;;5112086;28;19908;-52
2023/02/05 06:57:49;;;;;;;;;;;;;;;;;;5109184;28;20375;-54
2023/02/05 07:00:15;;;;;;;;;;;;;;;;;;5103823;28;19912;-60
2023/02/05 07:02:41;;;;;;;;;;;;;;;;;;5112179;28;19931;-60
2023/02/05 07:05:07;;;;;;;;;;;;;;;;;;5109790;28;20376;-53
2023/02/05 07:07:33;;;;;;;;;;;;;;;;;;5103417;28;19912;-60
2023/02/05 07:09:59;;;;;;;;;;;;;;;;;;5091778;28;19915;-60
2023/02/05 07:12:25;;;;;;;;;;;;;;;;;;5091747;28;19915;-60
2023/02/05 07:14:51;;;;;;;;;;;;;;;;;;5091630;28;20292;-60
2023/02/05 07:17:17;;;;;;;;;;;;;;;;;;5091585;28;19912;-61
2023/02/05 07:19:42;;;;;;;;;;;;;;;;;;5092012;28;19908;-60
2023/02/05 07:22:10;;;;;;;;;;;;;;;;;;5073573;28;19904;-61
2023/02/05 07:24:36;;;;;;;;;;;;;;;;;;5091407;28;19908;-61
2023/02/05 07:27:01;;;;;;;;;;;;;;;;;;5091628;28;19958;-61
2023/02/05 07:29:27;;;;;;;;;;;;;;;;;;5091675;28;20478;-61
2023/02/05 07:31:53;;;;;;;;;;;;;;;;;;5095299;28;19908;-61
2023/02/05 07:34:19;;;;;;;;;;;;;;;;;;5095148;28;20376;-61
2023/02/05 07:36:45;;;;;;;;;;;;;;;;;;5095134;28;20372;-59
2023/02/05 07:39:11;;;;;;;;;;;;;;;;;;5095121;28;19943;-60
2023/02/05 07:41:37;;;;;;;;;;;;;;;;;;5095087;28;19908;-59
2023/02/05 07:44:03;;;;;;;;;;;;;;;;;;5095195;28;20378;-61
2023/02/05 07:46:29;;;;;;;;;;;;;;;;;;5094897;28;20584;-61
2023/02/05 07:48:55;;;;;;;;;;;;;;;;;;5095019;28;20041;-61
2023/02/05 07:51:21;;;;;;;;;;;;;;;;;;5094959;28;20368;-60
2023/02/05 07:53:47;;;;;;;;;;;;;;;;;;5094608;28;19991;-61
2023/02/05 07:56:14;;;;;;;;;;;;;;;;;;5094647;28;20471;-60
2023/02/05 07:58:40;;;;;;;;;;;;;;;;;;5094860;28;19908;-60
2023/02/05 08:01:05;;;;;;;;;;;;;;;;;;5076630;28;20269;-60
2023/02/05 08:03:31;;;;;;;;;;;;;;;;;;5094835;28;19915;-60
2023/02/05 08:05:57;;;;;;;;;;;;;;;;;;5094680;28;20007;-61
2023/02/05 08:08:23;;;;;;;;;;;;;;;;;;5094531;28;19908;-61
2023/02/05 08:10:49;;;;;;;;;;;;;;;;;;5099133;28;19912;-61
2023/02/05 08:13:15;;;;;;;;;;;;;;;;;;5090626;28;19957;-61
2023/02/05 08:15:41;;;;;;;;;;;;;;;;;;5109895;28;19981;-61
2023/02/05 08:18:07;;;;;;;;;;;;;;;;;;5094002;28;20327;-61
2023/02/05 08:20:33;;;;;;;;;;;;;;;;;;5092657;28;19909;-61
2023/02/05 08:23:03;;;;;;;;;;;;;;;;;;5091929;28;19912;-61
2023/02/05 08:25:29;;;;;;;;;;;;;;;;;;5091222;28;19912;-61
2023/02/05 08:27:55;;;;;;;;;;;;;;;;;;5093248;28;20429;-61
2023/02/05 08:30:22;;;;;;;;;;;;;;;;;;5093349;28;19916;-61
2023/02/05 08:32:48;;;;;;;;;;;;;;;;;;5086055;28;19915;-60
2023/02/05 08:35:14;;;;;;;;;;;;;;;;;;5096073;28;20300;-61
2023/02/05 08:37:39;;;;;;;;;;;;;;;;;;5093898;28;19912;-60
2023/02/05 08:40:05;;;;;;;;;;;;;;;;;;5096956;28;19920;-61
2023/02/05 08:42:31;;;;;;;;;;;;;;;;;;5077003;28;19912;-61
2023/02/05 08:44:58;;;;;;;;;;;;;;;;;;5075625;28;20368;-61
2023/02/05 08:47:24;;;;;;;;;;;;;;;;;;5093990;28;19908;-61
2023/02/05 08:49:50;;;;;;;;;;;;;;;;;;5093849;28;20430;-61
2023/02/05 08:52:16;;;;;;;;;;;;;;;;;;5093703;28;19908;-60
2023/02/05 08:54:42;;;;;;;;;;;;;;;;;;5093957;28;20276;-59
2023/02/05 08:57:08;;;;;;;;;;;;;;;;;;5093476;28;19922;-62
2023/02/05 08:59:34;;;;;;;;;;;;;;;;;;5093714;28;19912;-61
2023/02/05 09:02:00;;;;;;;;;;;;;;;;;;5097647;28;20438;-63
2023/02/05 09:04:26;;;;;;;;;;;;;;;;;;5098435;28;20015;-63
2023/02/05 09:06:52;;;;;;;;;;;;;;;;;;5075185;28;20038;-61
2023/02/05 09:09:17;;;;;;;;;;;;;;;;;;5093606;28;20284;-60
2023/02/05 09:11:43;;;;;;;;;;;;;;;;;;5093281;28;20336;-60
2023/02/05 09:14:09;;;;;;;;;;;;;;;;;;5093328;28;19915;-60
2023/02/05 09:16:35;;;;;;;;;;;;;;;;;;5093142;28;19912;-61
2023/02/05 09:19:01;;;;;;;;;;;;;;;;;;5093317;28;19915;-60
2023/02/05 09:21:27;;;;;;;;;;;;;;;;;;5093202;28;19960;-59
2023/02/05 09:23:53;;;;;;;;;;;;;;;;;;5100477;28;20006;-60
2023/02/05 09:26:19;;;;;;;;;;;;;;;;;;5113385;28;20065;-59
2023/02/05 09:28:45;;;;;;;;;;;;;;;;;;5095452;28;19908;-63
2023/02/05 09:31:11;;;;;;;;;;;;;;;;;;5113776;28;19908;-61
2023/02/05 09:33:37;;;;;;;;;;;;;;;;;;5113306;28;20272;-60
2023/02/05 09:36:03;;;;;;;;;;;;;;;;;;5095038;28;19919;-61
2023/02/05 09:38:29;;;;;;;;;;;;;;;;;;5112862;28;19991;-63
2023/02/05 09:40:55;;;;;;;;;;;;;;;;;;5113278;28;20007;-63
2023/02/05 09:43:22;;;;;;;;;;;;;;;;;;5095014;28;19908;-62
2023/02/05 09:45:48;;;;;;;;;;;;;;;;;;5113161;28;19914;-60
2023/02/05 09:48:14;;;;;;;;;;;;;;;;;;5113125;28;19912;-62
2023/02/05 09:50:40;;;;;;;;;;;;;;;;;;5112138;28;19915;-59
2023/02/05 09:53:06;;;;;;;;;;;;;;;;;;5112456;28;19916;-60
2023/02/05 09:55:32;;;;;;;;;;;;;;;;;;5112961;28;20383;-60
2023/02/05 09:57:59;;;;;;;;;;;;;;;;;;5094677;28;19927;-60
2023/02/05 10:00:26;;;;;;;;;;;;;;;;;;5113040;28;20287;-62
2023/02/05 10:02:52;;;;;;;;;;;;;;;;;;5112897;28;19912;-61
2023/02/05 10:05:18;;;;;;;;;;;;;;;;;;5112772;28;19908;-61
2023/02/05 10:07:44;;;;;;;;;;;;;;;;;;5112930;28;20002;-63
2023/02/05 10:10:10;;;;;;;;;;;;;;;;;;5112816;28;20016;-63
2023/02/05 10:12:36;;;;;;;;;;;;;;;;;;5112858;28;19986;-61
2023/02/05 10:15:02;;;;;;;;;;;;;;;;;;5112806;28;19939;-63
2023/02/05 10:17:28;;;;;;;;;;;;;;;;;;5112844;28;20322;-60
2023/02/05 10:19:54;;;;;;;;;;;;;;;;;;5112752;28;19946;-62
2023/02/05 10:22:20;;;;;;;;;;;;;;;;;;5113445;28;19908;-59
2023/02/05 10:24:46;;;;;;;;;;;;;;;;;;5111494;28;19907;-60
2023/02/05 10:27:11;;;;;;;;;;;;;;;;;;5099595;28;20492;-59
2023/02/05 10:29:37;;;;;;;;;;;;;;;;;;5110564;28;19911;-61
2023/02/05 10:32:03;;;;;;;;;;;;;;;;;;5097416;28;19912;-61
2023/02/05 10:34:29;;;;;;;;;;;;;;;;;;5106853;28;19907;-63
2023/02/05 10:36:55;;;;;;;;;;;;;;;;;;5111208;28;19919;-61
2023/02/05 10:39:22;;;;;;;;;;;;;;;;;;5092159;28;20053;-61
2023/02/05 10:41:47;;;;;;;;;;;;;;;;;;5092228;28;19915;-63
2023/02/05 10:44:13;;;;;;;;;;;;;;;;;;5092067;28;19908;-62
2023/02/05 10:46:39;;;;;;;;;;;;;;;;;;5073835;28;20381;-61
2023/02/05 10:49:05;;;;;;;;;;;;;;;;;;5093120;28;19951;-56
2023/02/05 10:51:31;;;;;;;;;;;;;;;;;;5112434;28;19951;-59
2023/02/05 10:53:57;;;;;;;;;;;;;;;;;;5112209;28;20468;-63
2023/02/05 10:56:23;;;;;;;;;;;;;;;;;;5112384;28;20310;-60
2023/02/05 10:58:49;;;;;;;;;;;;;;;;;;5112332;28;19912;-61
2023/02/05 11:01:15;;;;;;;;;;;;;;;;;;5112351;28;19907;-60
2023/02/05 11:03:41;;;;;;;;;;;;;;;;;;5112227;28;19908;-59
2023/02/05 11:06:07;;;;;;;;;;;;;;;;;;5114867;28;20345;-62
2023/02/05 11:08:33;;;;;;;;;;;;;;;;;;5116267;28;19920;-61
2023/02/05 11:10:59;;;;;;;;;;;;;;;;;;5097881;28;19956;-57
2023/02/05 11:13:26;;;;;;;;;;;;;;;;;;5116167;28;19912;-61
2023/02/05 11:15:52;;;;;;;;;;;;;;;;;;5115687;28;20416;-61
2023/02/05 11:18:18;;;;;;;;;;;;;;;;;;5115899;28;19998;-62
2023/02/05 11:20:47;;;;;;;;;;;;;;;;;;5097692;28;20007;-61
2023/02/05 11:23:13;;;;;;;;;;;;;;;;;;5101502;28;20046;-61
2023/02/05 11:25:39;;;;;;;;;;;;;;;;;;5106115;28;19953;-62
2023/02/05 11:28:05;;;;;;;;;;;;;;;;;;5098620;28;19916;-61
2023/02/05 11:30:31;;;;;;;;;;;;;;;;;;5110108;28;20436;-61
2023/02/05 11:32:57;;;;;;;;;;;;;;;;;;5106207;28;20003;-61
2023/02/05 11:35:23;;;;;;;;;;;;;;;;;;5106111;28;20004;-61
2023/02/05 11:37:50;;;;;;;;;;;;;;;;;;5095376;28;19944;-61
2023/02/05 11:40:15;;;;;;;;;;;;;;;;;;5096694;28;20334;-62
2023/02/05 11:42:41;;;;;;;;;;;;;;;;;;5101497;28;19911;-61
2023/02/05 11:45:07;;;;;;;;;;;;;;;;;;5112867;28;19964;-61
2023/02/05 11:47:33;;;;;;;;;;;;;;;;;;5095040;28;19908;-62
2023/02/05 11:49:59;;;;;;;;;;;;;;;;;;5113420;28;19918;-61
2023/02/05 11:52:25;;;;;;;;;;;;;;;;;;5115547;28;19908;-62
2023/02/05 11:54:51;;;;;;;;;;;;;;;;;;5115142;28;19918;-62
2023/02/05 11:57:18;;;;;;;;;;;;;;;;;;5085060;28;19915;-62
2023/02/05 11:59:47;;;;;;;;;;;;;;;;;;5113247;28;20003;-62
2023/02/05 12:02:13;;;;;;;;;;;;;;;;;;5098146;28;19912;-60
2023/02/05 12:04:39;;;;;;;;;;;;;;;;;;5094431;28;19915;-62
2023/02/05 12:07:05;;;;;;;;;;;;;;;;;;5094725;28;19920;-61
2023/02/05 12:09:31;;;;;;;;;;;;;;;;;;5076528;28;19923;-62
2023/02/05 12:12:02;;;;;;;;;;;;;;;;;;5100893;28;19912;-61
2023/02/05 12:14:28;;;;;;;;;;;;;;;;;;5114720;28;19938;-62
2023/02/05 12:16:54;;;;;;;;;;;;;;;;;;5102899;28;20130;-61
2023/02/05 12:19:20;;;;;;;;;;;;;;;;;;5114760;28;19908;-61
2023/02/05 12:21:45;;;;;;;;;;;;;;;;;;5102044;28;19919;-61
2023/02/05 12:24:11;;;;;;;;;;;;;;;;;;5088661;28;19924;-62
2023/02/05 12:26:37;;;;;;;;;;;;;;;;;;5094167;28;20003;-62
2023/02/05 12:29:03;;;;;;;;;;;;;;;;;;5094258;28;19995;-61
2023/02/05 12:31:29;;;;;;;;;;;;;;;;;;5095179;28;20011;-61
2023/02/05 12:33:55;;;;;;;;;;;;;;;;;;5094052;28;20321;-61
2023/02/05 12:36:21;;;;;;;;;;;;;;;;;;5102684;28;20372;-62
2023/02/05 12:38:47;;;;;;;;;;;;;;;;;;5102299;28;19912;-62
2023/02/05 12:41:13;;;;;;;;;;;;;;;;;;5103021;28;20410;-62
2023/02/05 12:43:39;;;;;;;;;;;;;;;;;;5102304;28;19912;-62
2023/02/05 12:46:05;;;;;;;;;;;;;;;;;;5102718;28;20023;-62
2023/02/05 12:48:33;;;;;;;;;;;;;;;;;;5105192;28;19915;-61
2023/02/05 12:50:59;;;;;;;;;;;;;;;;;;5102728;28;19912;-62
2023/02/05 12:53:26;;;;;;;;;;;;;;;;;;5092240;28;20268;-62
2023/02/05 12:55:53;;;;;;;;;;;;;;;;;;5095305;28;21434;-62
2023/02/05 12:58:19;;;;;;;;;;;;;;;;;;5113726;28;19918;-62
2023/02/05 13:00:45;;;;;;;;;;;;;;;;;;5106507;28;19912;-63
2023/02/05 13:03:11;;;;;;;;;;;;;;;;;;5104501;28;19912;-63
2023/02/05 13:05:37;;;;;;;;;;;;;;;;;;5093519;28;20320;-62
2023/02/05 13:08:03;;;;;;;;;;;;;;;;;;5093195;28;19912;-62
2023/02/05 13:10:29;;;;;;;;;;;;;;;;;;5100102;28;19965;-62
2023/02/05 13:12:55;;;;;;;;;;;;;;;;;;5112968;28;19912;-61
2023/02/05 13:15:21;;;;;;;;;;;;;;;;;;5111168;28;19908;-66
2023/02/05 13:17:47;;;;;;;;;;;;;;;;;;5093194;28;19912;-62
2023/02/05 13:20:13;;;;;;;;;;;;;;;;;;5093107;28;20361;-61
2023/02/05 13:30:54;;;;;;;;;;;;;;;;;;5110625;28;20304;-62
2023/02/05 13:33:20;;;;;;;;;;;;;;;;;;5112901;28;19912;-62
2023/02/05 13:35:46;;;;;;;;;;;;;;;;;;5113157;28;19908;-62
2023/02/05 13:38:11;;;;;;;;;;;;;;;;;;5112959;28;19920;-62
2023/02/05 13:40:37;;;;;;;;;;;;;;;;;;5101247;28;19966;-62
2023/02/05 13:43:03;;;;;;;;;;;;;;;;;;5092694;28;19919;-62
2023/02/05 13:45:29;;;;;;;;;;;;;;;;;;5096263;28;19919;-62
2023/02/05 13:47:55;;;;;;;;;;;;;;;;;;5108426;28;19912;-62
2023/02/05 13:50:22;;;;;;;;;;;;;;;;;;5092708;28;20387;-62
2023/02/05 13:52:48;;;;;;;;;;;;;;;;;;5111341;28;20354;-62
2023/02/05 13:55:13;;;;;;;;;;;;;;;;;;5112468;28;20011;-62
2023/02/05 13:57:39;;;;;;;;;;;;;;;;;;5112849;28;19918;-62
2023/02/05 14:00:05;;;;;;;;;;;;;;;;;;5097053;28;19912;-63
2023/02/05 14:02:31;;;;;;;;;;;;;;;;;;5092344;28;19919;-63
2023/02/05 14:04:57;;;;;;;;;;;;;;;;;;5092235;28;19915;-62
2023/02/05 14:07:23;;;;;;;;;;;;;;;;;;5092410;28;20364;-62
2023/02/05 14:09:51;;;;;;;;;;;;;;;;;;5092336;28;20380;-62
2023/02/05 14:12:17;;;;;;;;;;;;;;;;;;5107577;28;20418;-62
2023/02/05 14:14:43;;;;;;;;;;;;;;;;;;5111821;28;20185;-64
2023/02/05 14:17:09;;;;;;;;;;;;;;;;;;5090805;28;19916;-63
2023/02/05 14:19:35;;;;;;;;;;;;;;;;;;5112292;28;19916;-63
2023/02/05 14:22:01;;;;;;;;;;;;;;;;;;5112285;28;20291;-62
2023/02/05 14:24:27;;;;;;;;;;;;;;;;;;5111795;28;19912;-63
2023/02/05 14:26:55;;;;;;;;;;;;;;;;;;5099727;28;20403;-63
2023/02/05 14:29:20;;;;;;;;;;;;;;;;;;5092126;28;19954;-62
2023/02/05 14:31:46;;;;;;;;;;;;;;;;;;5092958;28;19912;-62
2023/02/05 14:34:12;;;;;;;;;;;;;;;;;;5094526;28;19920;-64
2023/02/05 14:36:38;;;;;;;;;;;;;;;;;;5111950;28;19915;-64
2023/02/05 14:39:04;;;;;;;;;;;;;;;;;;5109705;28;20277;-64
2023/02/05 14:41:30;;;;;;;;;;;;;;;;;;5105433;28;19965;-64
2023/02/05 14:43:56;;;;;;;;;;;;;;;;;;5096187;28;19961;-64
2023/02/05 14:46:22;;;;;;;;;;;;;;;;;;5105009;28;19911;-64
2023/02/05 14:48:48;;;;;;;;;;;;;;;;;;5083803;28;19912;-63
2023/02/05 14:51:14;;;;;;;;;;;;;;;;;;5096133;28;20380;-64
2023/02/05 14:53:40;;;;;;;;;;;;;;;;;;5078243;28;19920;-64
2023/02/05 14:56:06;;;;;;;;;;;;;;;;;;5095768;28;19966;-64
2023/02/05 14:58:32;;;;;;;;;;;;;;;;;;5095871;28;19957;-64
2023/02/05 15:00:58;;;;;;;;;;;;;;;;;;5102823;28;19911;-64
2023/02/05 15:03:24;;;;;;;;;;;;;;;;;;5116291;28;19908;-63
2023/02/05 15:05:51;;;;;;;;;;;;;;;;;;5116096;28;19914;-63
2023/02/05 15:08:16;;;;;;;;;;;;;;;;;;5103613;28;19945;-63
2023/02/05 15:10:42;;;;;;;;;;;;;;;;;;5096911;28;19974;-63
2023/02/05 15:13:08;;;;;;;;;;;;;;;;;;5095580;28;20412;-63
2023/02/05 15:15:34;;;;;;;;;;;;;;;;;;5095543;28;19957;-63
2023/02/05 15:18:00;;;;;;;;;;;;;;;;;;5095485;28;19912;-63
2023/02/05 15:20:26;;;;;;;;;;;;;;;;;;5100691;28;19911;-63
2023/02/05 15:22:52;;;;;;;;;;;;;;;;;;5097017;28;20276;-63
2023/02/05 15:25:18;;;;;;;;;;;;;;;;;;5105063;28;19909;-63
2023/02/05 15:27:44;;;;;;;;;;;;;;;;;;5081063;28;19911;-63
2023/02/05 15:30:10;;;;;;;;;;;;;;;;;;5095352;28;19908;-62
2023/02/05 15:32:36;;;;;;;;;;;;;;;;;;5095313;28;20014;-63
2023/02/05 15:35:02;;;;;;;;;;;;;;;;;;5078662;28;19958;-63
2023/02/05 15:37:28;;;;;;;;;;;;;;;;;;5110703;28;19977;-62
2023/02/05 15:39:53;;;;;;;;;;;;;;;;;;5114333;28;19908;-62
2023/02/05 15:42:19;;;;;;;;;;;;;;;;;;5096829;28;19912;-63
2023/02/05 15:44:45;;;;;;;;;;;;;;;;;;5115223;28;20368;-62
2023/02/05 15:47:11;;;;;;;;;;;;;;;;;;5115054;28;20372;-63
2023/02/05 15:49:37;;;;;;;;;;;;;;;;;;5115105;28;19914;-62
2023/02/05 15:52:03;;;;;;;;;;;;;;;;;;5114021;28;19998;-63
2023/02/05 15:54:29;;;;;;;;;;;;;;;;;;5113886;28;20299;-63
2023/02/05 15:56:55;;;;;;;;;;;;;;;;;;5114923;28;20290;-62
2023/02/05 15:59:21;;;;;;;;;;;;;;;;;;5095013;28;20478;-62
2023/02/05 16:01:47;;;;;;;;;;;;;;;;;;5100306;28;19998;-62
2023/02/05 16:04:13;;;;;;;;;;;;;;;;;;5110850;28;19916;-60
2023/02/05 16:06:39;;;;;;;;;;;;;;;;;;5111138;28;19923;-62
2023/02/05 16:09:05;;;;;;;;;;;;;;;;;;5109573;28;19920;-61
2023/02/05 16:11:31;;;;;;;;;;;;;;;;;;5101786;28;19916;-61
2023/02/05 16:13:57;;;;;;;;;;;;;;;;;;5114515;28;19916;-53
2023/02/05 16:16:23;;;;;;;;;;;;;;;;;;5108854;28;19915;-61
2023/02/05 16:18:49;;;;;;;;;;;;;;;;;;5098795;28;19908;-61
2023/02/05 16:21:14;;;;;;;;;;;;;;;;;;5094230;28;19908;-59
2023/02/05 16:23:40;;;;;;;;;;;;;;;;;;5094406;28;20300;-59
2023/02/05 16:26:06;;;;;;;;;;;;;;;;;;5113888;28;19912;-60
2023/02/05 16:28:32;;;;;;;;;;;;;;;;;;5094446;28;20329;-58
2023/02/05 16:30:58;;;;;;;;;;;;;;;;;;5100882;28;20006;-60
2023/02/05 16:33:24;;;;;;;;;;;;;;;;;;5112110;28;19916;-59
2023/02/05 16:35:50;;;;;;;;;;;;;;;;;;5094066;28;19954;-59
2023/02/05 16:38:16;;;;;;;;;;;;;;;;;;5094301;28;19960;-63
2023/02/05 16:40:42;;;;;;;;;;;;;;;;;;5094498;28;20380;-61
2023/02/05 16:43:08;;;;;;;;;;;;;;;;;;5093623;28;20380;-60
2023/02/05 16:45:34;;;;;;;;;;;;;;;;;;5097720;28;19911;-60
2023/02/05 16:48:00;;;;;;;;;;;;;;;;;;5107499;28;20402;-61
2023/02/05 16:50:26;;;;;;;;;;;;;;;;;;5112356;28;19942;-59